sensor_id;sensor_type;location;lat;lon;timestamp;pressure;altitude;pressure_sealevel;temperature;humidity
61357;BME280;47227;46.752;23.576;2023-02-04T00:54:46;95540.20;;;-0.55;92.52
61357;BME280;47227;46.752;23.576;2023-02-04T00:57:14;95539.74;;;-0.53;92.44
61357;BME280;47227;46.752;23.576;2023-02-04T00:59:43;95541.89;;;-0.48;91.97
61357;BME280;47227;46.752;23.576;2023-02-04T01:02:12;95541.05;;;-0.51;92.22
61357;BME280;47227;46.752;23.576;2023-02-04T01:04:40;95541.44;;;-0.44;91.96
61357;BME280;47227;46.752;23.576;2023-02-04T01:07:08;95537.71;;;-0.43;91.79
61357;BME280;47227;46.752;23.576;2023-02-04T01:09:38;95533.31;;;-0.38;91.43
61357;BME280;47227;46.752;23.576;2023-02-04T01:12:06;95533.36;;;-0.29;91.52
61357;BME280;47227;46.752;23.576;2023-02-04T01:14:34;95533.00;;;-0.27;91.07
61357;BME280;47227;46.752;23.576;2023-02-04T01:17:05;95532.69;;;-0.26;90.85
61357;BME280;47227;46.752;23.576;2023-02-04T01:19:33;95531.21;;;-0.31;91.12
61357;BME280;47227;46.752;23.576;2023-02-04T01:22:01;95528.67;;;-0.35;90.94
61357;BME280;47227;46.752;23.576;2023-02-04T01:24:32;95532.70;;;-0.32;90.61
61357;BME280;47227;46.752;23.576;2023-02-04T01:30:41;95535.77;;;-0.32;90.55
61357;BME280;47227;46.752;23.576;2023-02-04T01:33:10;95537.87;;;-0.32;90.46
61357;BME280;47227;46.752;23.576;2023-02-04T01:35:39;95537.08;;;-0.33;90.22
61357;BME280;47227;46.752;23.576;2023-02-04T01:38:07;95534.19;;;-0.36;90.70
61357;BME280;47227;46.752;23.576;2023-02-04T01:40:39;95537.31;;;-0.40;90.59
61357;BME280;47227;46.752;23.576;2023-02-04T01:46:22;95532.44;;;-0.45;90.36
61357;BME280;47227;46.752;23.576;2023-02-04T01:48:51;95533.30;;;-0.47;90.25
61357;BME280;47227;46.752;23.576;2023-02-04T01:51:25;95532.55;;;-0.47;90.29
61357;BME280;47227;46.752;23.576;2023-02-04T01:53:55;95531.20;;;-0.48;89.92
61357;BME280;47227;46.752;23.576;2023-02-04T01:56:25;95532.38;;;-0.49;90.12
61357;BME280;47227;46.752;23.576;2023-02-04T01:59:00;95534.16;;;-0.49;89.91
61357;BME280;47227;46.752;23.576;2023-02-04T02:08:06;95541.03;;;-0.47;89.49
61357;BME280;47227;46.752;23.576;2023-02-04T02:10:39;95545.34;;;-0.49;90.26
61357;BME280;47227;46.752;23.576;2023-02-04T02:13:10;95540.91;;;-0.47;89.91
61357;BME280;47227;46.752;23.576;2023-02-04T02:15:40;95545.32;;;-0.41;89.54
61357;BME280;47227;46.752;23.576;2023-02-04T02:18:09;95548.02;;;-0.35;89.52
61357;BME280;47227;46.752;23.576;2023-02-04T02:20:42;95545.20;;;-0.28;89.34
61357;BME280;47227;46.752;23.576;2023-02-04T02:23:20;95545.73;;;-0.23;89.30
61357;BME280;47227;46.752;23.576;2023-02-04T02:26:29;95549.55;;;-0.15;89.17
61357;BME280;47227;46.752;23.576;2023-02-04T02:28:57;95543.96;;;-0.11;89.33
61357;BME280;47227;46.752;23.576;2023-02-04T02:31:25;95542.20;;;-0.05;88.95
61357;BME280;47227;46.752;23.576;2023-02-04T02:33:54;95542.71;;;-0.01;89.07
61357;BME280;47227;46.752;23.576;2023-02-04T02:36:23;95545.66;;;0.01;88.84
61357;BME280;47227;46.752;23.576;2023-02-04T02:38:51;95547.25;;;0.00;88.70
61357;BME280;47227;46.752;23.576;2023-02-04T02:41:20;95545.90;;;-0.02;88.61
61357;BME280;47227;46.752;23.576;2023-02-04T03:27:02;95557.80;;;-0.40;88.55
61357;BME280;47227;46.752;23.576;2023-02-04T03:55:02;95552.99;;;-0.06;89.45
61357;BME280;47227;46.752;23.576;2023-02-04T04:01:32;95546.22;;;0.11;89.23
61357;BME280;47227;46.752;23.576;2023-02-04T05:40:20;95569.34;;;0.76;88.42
61357;BME280;47227;46.752;23.576;2023-02-04T08:17:00;95617.56;;;2.46;81.24
61357;BME280;47227;46.752;23.576;2023-02-04T08:20:06;95624.20;;;2.48;81.33
61357;BME280;47227;46.752;23.576;2023-02-04T08:22:36;95629.69;;;2.47;80.83
61357;BME280;47227;46.752;23.576;2023-02-04T08:25:05;95629.44;;;2.44;80.76
61357;BME280;47227;46.752;23.576;2023-02-04T08:27:33;95626.19;;;2.32;80.94
61357;BME280;47227;46.752;23.576;2023-02-04T08:30:01;95623.12;;;2.37;80.89
61357;BME280;47227;46.752;23.576;2023-02-04T08:32:29;95624.95;;;2.44;80.91
61357;BME280;47227;46.752;23.576;2023-02-04T08:34:58;95629.06;;;2.48;81.50
61357;BME280;47227;46.752;23.576;2023-02-04T08:37:27;95627.70;;;2.66;81.31
61357;BME280;47227;46.752;23.576;2023-02-04T08:39:55;95628.10;;;2.75;81.16
61357;BME280;47227;46.752;23.576;2023-02-04T08:42:23;95631.55;;;2.74;80.34
61357;BME280;47227;46.752;23.576;2023-02-04T08:44:51;95631.50;;;2.74;80.61
61357;BME280;47227;46.752;23.576;2023-02-04T08:47:19;95635.46;;;2.85;79.95
61357;BME280;47227;46.752;23.576;2023-02-04T08:49:47;95631.66;;;2.99;80.32
61357;BME280;47227;46.752;23.576;2023-02-04T08:52:16;95635.46;;;3.16;80.11
61357;BME280;47227;46.752;23.576;2023-02-04T08:54:44;95641.41;;;3.34;80.45
61357;BME280;47227;46.752;23.576;2023-02-04T08:57:12;95645.56;;;3.47;79.01
61357;BME280;47227;46.752;23.576;2023-02-04T08:59:40;95647.98;;;3.54;78.33
61357;BME280;47227;46.752;23.576;2023-02-04T09:02:09;95651.23;;;3.67;78.53
61357;BME280;47227;46.752;23.576;2023-02-04T09:04:37;95650.58;;;3.81;78.56
61357;BME280;47227;46.752;23.576;2023-02-04T09:07:05;95652.87;;;3.98;78.79
61357;BME280;47227;46.752;23.576;2023-02-04T09:09:36;95655.80;;;3.99;76.45
61357;BME280;47227;46.752;23.576;2023-02-04T09:12:04;95654.89;;;4.04;77.16
61357;BME280;47227;46.752;23.576;2023-02-04T09:14:38;95657.14;;;4.01;76.59
61357;BME280;47227;46.752;23.576;2023-02-04T09:17:06;95656.83;;;3.95;75.69
61357;BME280;47227;46.752;23.576;2023-02-04T09:19:41;95660.40;;;3.65;76.04
61357;BME280;47227;46.752;23.576;2023-02-04T09:22:10;95659.95;;;3.48;76.44
61357;BME280;47227;46.752;23.576;2023-02-04T09:24:48;95657.46;;;3.54;76.81
61357;BME280;47227;46.752;23.576;2023-02-04T09:27:22;95662.96;;;3.46;76.55
61357;BME280;47227;46.752;23.576;2023-02-04T09:30:00;95665.35;;;3.43;77.05
61357;BME280;47227;46.752;23.576;2023-02-04T09:32:33;95665.64;;;3.27;77.19
61357;BME280;47227;46.752;23.576;2023-02-04T09:35:02;95669.05;;;3.21;77.34
61357;BME280;47227;46.752;23.576;2023-02-04T09:37:33;95670.87;;;3.23;77.46
61357;BME280;47227;46.752;23.576;2023-02-04T09:40:05;95668.86;;;3.29;77.84
61357;BME280;47227;46.752;23.576;2023-02-04T09:42:38;95669.58;;;3.33;77.53
61357;BME280;47227;46.752;23.576;2023-02-04T09:45:13;95675.23;;;3.29;77.05
61357;BME280;47227;46.752;23.576;2023-02-04T09:47:42;95672.06;;;3.27;77.40
61357;BME280;47227;46.752;23.576;2023-02-04T09:50:19;95676.40;;;3.24;77.83
61357;BME280;47227;46.752;23.576;2023-02-04T10:38:59;95673.17;;;3.17;78.76
61357;BME280;47227;46.752;23.576;2023-02-04T11:11:28;95681.79;;;3.35;78.97
61357;BME280;47227;46.752;23.576;2023-02-04T11:24:46;95690.98;;;3.11;78.11
61357;BME280;47227;46.752;23.576;2023-02-04T11:38:27;95700.52;;;2.90;81.08
61357;BME280;47227;46.752;23.576;2023-02-04T11:40:58;95702.76;;;2.98;80.63
61357;BME280;47227;46.752;23.576;2023-02-04T11:43:27;95707.40;;;2.97;81.33
61357;BME280;47227;46.752;23.576;2023-02-04T11:46:13;95706.58;;;2.80;81.40
61357;BME280;47227;46.752;23.576;2023-02-04T11:48:45;95705.77;;;2.72;81.86
61357;BME280;47227;46.752;23.576;2023-02-04T11:51:15;95706.79;;;2.73;81.66
61357;BME280;47227;46.752;23.576;2023-02-04T11:53:50;95708.63;;;2.73;82.40
61357;BME280;47227;46.752;23.576;2023-02-04T11:56:19;95710.88;;;2.76;81.75
61357;BME280;47227;46.752;23.576;2023-02-04T11:58:49;95712.94;;;2.78;81.40
61357;BME280;47227;46.752;23.576;2023-02-04T12:01:20;95715.27;;;2.76;80.85
61357;BME280;47227;46.752;23.576;2023-02-04T12:03:55;95720.11;;;2.72;80.69
61357;BME280;47227;46.752;23.576;2023-02-04T12:06:38;95722.39;;;2.66;80.59
61357;BME280;47227;46.752;23.576;2023-02-04T12:09:22;95726.27;;;2.57;80.60
61357;BME280;47227;46.752;23.576;2023-02-04T12:11:52;95727.98;;;2.45;81.23
61357;BME280;47227;46.752;23.576;2023-02-04T12:14:28;95732.92;;;2.34;82.04
61357;BME280;47227;46.752;23.576;2023-02-04T12:16:58;95736.34;;;2.05;83.79
61357;BME280;47227;46.752;23.576;2023-02-04T12:19:26;95739.86;;;1.90;84.69
61357;BME280;47227;46.752;23.576;2023-02-04T12:21:54;95744.81;;;1.84;84.82
61357;BME280;47227;46.752;23.576;2023-02-04T12:24:22;95743.42;;;1.75;85.21
61357;BME280;47227;46.752;23.576;2023-02-04T12:26:50;95747.57;;;1.74;85.24
61357;BME280;47227;46.752;23.576;2023-02-04T12:29:18;95748.08;;;1.79;85.16
61357;BME280;47227;46.752;23.576;2023-02-04T13:08:17;95819.06;;;1.18;87.96
61357;BME280;47227;46.752;23.576;2023-02-04T14:02:22;95935.38;;;-0.24;90.06
61357;BME280;47227;46.752;23.576;2023-02-04T14:44:15;95998.50;;;-0.65;90.25
61357;BME280;47227;46.752;23.576;2023-02-04T14:47:11;95995.05;;;-0.68;90.01
61357;BME280;47227;46.752;23.576;2023-02-04T15:11:19;96059.03;;;-1.03;89.20
61357;BME280;47227;46.752;23.576;2023-02-04T18:06:25;96526.22;;;-3.59;91.42
61357;BME280;47227;46.752;23.576;2023-02-04T18:16:45;96539.90;;;-3.71;92.64
61357;BME280;47227;46.752;23.576;2023-02-04T19:32:03;96689.10;;;-3.91;88.79
61357;BME280;47227;46.752;23.576;2023-02-04T19:35:16;96694.94;;;-3.97;89.01
61357;BME280;47227;46.752;23.576;2023-02-04T19:40:52;96708.52;;;-3.96;88.82
61357;BME280;47227;46.752;23.576;2023-02-04T19:53:27;96718.50;;;-3.97;89.62
61357;BME280;47227;46.752;23.576;2023-02-04T19:56:34;96727.40;;;-4.10;89.82
61357;BME280;47227;46.752;23.576;2023-02-04T19:59:35;96730.73;;;-4.12;90.41
61357;BME280;47227;46.752;23.576;2023-02-04T20:02:58;96738.31;;;-4.17;90.35
61357;BME280;47227;46.752;23.576;2023-02-04T20:06:18;96741.73;;;-4.28;90.65
61357;BME280;47227;46.752;23.576;2023-02-04T20:09:17;96744.27;;;-4.28;90.40
61357;BME280;47227;46.752;23.576;2023-02-04T20:12:45;96751.61;;;-4.31;90.10
61357;BME280;47227;46.752;23.576;2023-02-04T20:15:34;96755.68;;;-4.48;90.53
61357;BME280;47227;46.752;23.576;2023-02-04T20:31:56;96779.14;;;-4.24;89.79
61357;BME280;47227;46.752;23.576;2023-02-04T20:34:49;96783.05;;;-4.26;89.45
61357;BME280;47227;46.752;23.576;2023-02-04T20:37:52;96787.11;;;-4.29;89.11
61357;BME280;47227;46.752;23.576;2023-02-04T20:41:18;96794.81;;;-4.35;88.80
61357;BME280;47227;46.752;23.576;2023-02-04T20:44:10;96795.59;;;-4.40;88.61
61357;BME280;47227;46.752;23.576;2023-02-04T20:46:38;96798.21;;;-4.41;88.40
61357;BME280;47227;46.752;23.576;2023-02-04T20:49:24;96797.02;;;-4.41;88.20
61357;BME280;47227;46.752;23.576;2023-02-04T20:51:55;96804.61;;;-4.38;87.53
61357;BME280;47227;46.752;23.576;2023-02-04T20:54:28;96803.48;;;-4.37;87.45
61357;BME280;47227;46.752;23.576;2023-02-04T21:00:02;96812.85;;;-4.31;86.29
61357;BME280;47227;46.752;23.576;2023-02-04T21:03:24;96817.58;;;-4.30;85.98
61357;BME280;47227;46.752;23.576;2023-02-04T21:09:26;96823.77;;;-4.38;83.59
61357;BME280;47227;46.752;23.576;2023-02-04T21:12:15;96834.11;;;-4.47;82.20
61357;BME280;47227;46.752;23.576;2023-02-04T21:15:40;96837.52;;;-4.49;81.78
61357;BME280;47227;46.752;23.576;2023-02-04T21:18:58;96832.09;;;-4.51;82.03
61357;BME280;47227;46.752;23.576;2023-02-04T21:22:33;96834.42;;;-4.56;81.09
61357;BME280;47227;46.752;23.576;2023-02-04T21:25:39;96837.95;;;-4.57;81.30
61357;BME280;47227;46.752;23.576;2023-02-04T21:28:51;96845.29;;;-4.53;81.25
61357;BME280;47227;46.752;23.576;2023-02-04T21:31:56;96847.15;;;-4.53;81.10
61357;BME280;47227;46.752;23.576;2023-02-04T21:35:19;96851.50;;;-4.58;81.32
61357;BME280;47227;46.752;23.576;2023-02-04T21:50:43;96861.42;;;-4.72;81.28
61357;BME280;47227;46.752;23.576;2023-02-04T21:53:11;96869.23;;;-4.71;81.21
61357;BME280;47227;46.752;23.576;2023-02-04T21:55:39;96871.90;;;-4.78;81.05
61357;BME280;47227;46.752;23.576;2023-02-04T21:58:07;96876.16;;;-4.76;81.29
61357;BME280;47227;46.752;23.576;2023-02-04T22:00:35;96877.59;;;-4.71;81.40
61357;BME280;47227;46.752;23.576;2023-02-04T22:03:03;96881.41;;;-4.66;81.51
61357;BME280;47227;46.752;23.576;2023-02-04T22:05:32;96886.86;;;-4.70;81.73
61357;BME280;47227;46.752;23.576;2023-02-04T22:08:01;96890.88;;;-4.67;81.53
61357;BME280;47227;46.752;23.576;2023-02-04T22:10:29;96895.40;;;-4.62;81.58
61357;BME280;47227;46.752;23.576;2023-02-04T22:12:57;96897.23;;;-4.62;81.66
61357;BME280;47227;46.752;23.576;2023-02-04T22:15:24;96897.23;;;-4.64;81.68
61357;BME280;47227;46.752;23.576;2023-02-04T22:17:54;96899.68;;;-4.64;81.85
61357;BME280;47227;46.752;23.576;2023-02-04T22:20:23;96900.49;;;-4.68;81.98
61357;BME280;47227;46.752;23.576;2023-02-04T22:22:52;96899.38;;;-4.78;82.85
61357;BME280;47227;46.752;23.576;2023-02-04T22:25:20;96906.00;;;-4.76;82.81
61357;BME280;47227;46.752;23.576;2023-02-04T22:27:49;96904.12;;;-4.88;82.52
61357;BME280;47227;46.752;23.576;2023-02-04T22:30:18;96912.63;;;-4.89;82.70
61357;BME280;47227;46.752;23.576;2023-02-04T22:32:46;96914.73;;;-4.90;83.00
61357;BME280;47227;46.752;23.576;2023-02-04T22:35:14;96925.75;;;-4.89;83.18
61357;BME280;47227;46.752;23.576;2023-02-04T22:37:42;96926.12;;;-4.86;82.99
61357;BME280;47227;46.752;23.576;2023-02-04T22:40:11;96928.77;;;-4.83;82.70
61357;BME280;47227;46.752;23.576;2023-02-04T22:42:39;96929.91;;;-4.80;82.77
61357;BME280;47227;46.752;23.576;2023-02-04T22:45:07;96926.69;;;-4.90;83.35
61357;BME280;47227;46.752;23.576;2023-02-04T22:47:37;96921.14;;;-4.91;83.57
61357;BME280;47227;46.752;23.576;2023-02-04T22:50:05;96923.14;;;-4.86;83.56
61357;BME280;47227;46.752;23.576;2023-02-04T22:52:33;96918.39;;;-4.87;83.39
61357;BME280;47227;46.752;23.576;2023-02-04T22:55:02;96916.08;;;-4.95;83.88
61357;BME280;47227;46.752;23.576;2023-02-04T22:57:30;96921.08;;;-4.96;83.84
61357;BME280;47227;46.752;23.576;2023-02-04T22:59:57;96925.77;;;-4.99;83.66
61357;BME280;47227;46.752;23.576;2023-02-04T23:02:25;96921.18;;;-5.09;84.57
61357;BME280;47227;46.752;23.576;2023-02-04T23:04:53;96930.36;;;-5.09;84.56
61357;BME280;47227;46.752;23.576;2023-02-04T23:07:21;96930.61;;;-5.10;84.23
61357;BME280;47227;46.752;23.576;2023-02-04T23:09:49;96922.63;;;-5.16;84.75
61357;BME280;47227;46.752;23.576;2023-02-04T23:12:17;96921.17;;;-5.11;84.43
61357;BME280;47227;46.752;23.576;2023-02-04T23:14:47;96923.95;;;-5.11;84.46
61357;BME280;47227;46.752;23.576;2023-02-04T23:17:16;96921.66;;;-5.11;84.32
61357;BME280;47227;46.752;23.576;2023-02-04T23:19:45;96917.33;;;-5.10;84.27
61357;BME280;47227;46.752;23.576;2023-02-04T23:22:13;96923.39;;;-5.13;83.80
61357;BME280;47227;46.752;23.576;2023-02-04T23:24:42;96924.73;;;-5.11;83.81
61357;BME280;47227;46.752;23.576;2023-02-04T23:27:11;96924.30;;;-5.12;83.70
61357;BME280;47227;46.752;23.576;2023-02-04T23:29:39;96922.95;;;-5.14;83.42
61357;BME280;47227;46.752;23.576;2023-02-04T23:32:07;96922.33;;;-5.18;83.35
61357;BME280;47227;46.752;23.576;2023-02-04T23:34:36;96919.65;;;-5.25;82.97
61357;BME280;47227;46.752;23.576;2023-02-04T23:37:04;96922.52;;;-5.31;82.76
61357;BME280;47227;46.752;23.576;2023-02-04T23:39:32;96924.65;;;-5.33;83.04
61357;BME280;47227;46.752;23.576;2023-02-04T23:42:00;96928.86;;;-5.37;82.40
61357;BME280;47227;46.752;23.576;2023-02-04T23:44:28;96931.98;;;-5.41;82.13
61357;BME280;47227;46.752;23.576;2023-02-04T23:46:56;96936.01;;;-5.43;81.98
61357;BME280;47227;46.752;23.576;2023-02-04T23:49:24;96937.73;;;-5.41;82.06
61357;BME280;47227;46.752;23.576;2023-02-04T23:51:52;96939.41;;;-5.39;82.01
61357;BME280;47227;46.752;23.576;2023-02-04T23:54:20;96940.67;;;-5.39;81.89
61357;BME280;47227;46.752;23.576;2023-02-04T23:56:50;96943.41;;;-5.44;81.42
61357;BME280;47227;46.752;23.576;2023-02-04T23:59:18;96944.65;;;-5.50;80.78
